CYCK1: Republican River, Clay Center, KS

Data processed at Sun Jul 15 2018 23:36


All information presented herein is the property of the government of the United States of America and may be revised or deleted at any time without prior notice.
Dissemination of this information without the expressed written consent of the Public Affairs Office, Tulsa District U.S. Army Corps of Engineers is strictly prohibited.
These data are gathered electronically and, as presented, have not undergone any form of quality control. These data are not guaranteed to be valid or correct.
Go to home page.
Go to station list.


Previous Day
Next Day
Current Day


    
SHEF ID:       CYCK1     REPUBLICAN R AT CLAY CENTER, KS
STATION TYPE:  

               PRECIP     STAGE  RIV-FLOW  BAT-LOAD
                   in        ft       cfs      volt
              Ccp-Rev   Ccp-Rev   Ccp-Rev   Ccp-Rev
(US/Central)
07/15 00:00      0.00      7.45       414     12.54
07/15 01:00      0.00      7.46       418     12.54
07/15 02:00      0.00      7.49       430     12.48
07/15 03:00      0.00      7.54       450     12.48
07/15 04:00      0.00      7.59       470     12.48
07/15 05:00      0.00      7.62       482     12.42
07/15 06:00      0.00      7.62       482     12.42
07/15 07:00      0.00      7.60       474     12.42
07/15 08:00      0.00      7.57       462     12.42
07/15 09:00      0.00      7.53       446     11.48
07/15 10:00      0.00      7.49       430     12.54
07/15 11:00      0.00      7.43       407     12.65
07/15 12:00      0.00      7.39       392     12.65
07/15 13:00      0.00      7.34       375     12.71
07/15 14:00      0.00      7.29       358     12.83
07/15 15:00      0.00      7.25       344     12.77
07/15 16:00      0.00      7.21       331     12.71
07/15 17:00      0.00      7.18       321     12.77
07/15 18:00      0.00      7.15       312     12.65
07/15 19:00      0.00      7.23       338     12.60
07/15 20:00      0.00      7.30       361     12.54
07/15 21:00      0.00      7.22       335     12.54
07/15 22:00      0.00      7.15       312     12.48
07/15 23:00      ----      ----      ----      ----